sensor_id;sensor_type;location;lat;lon;timestamp;P1;durP1;ratioP1;P2;durP2;ratioP2
47383;SDS011;33129;52.232;5.192;2022-12-18T00:01:15;69.22;;;29.52;;
47383;SDS011;33129;52.232;5.192;2022-12-18T00:03:46;67.88;;;27.92;;
47383;SDS011;33129;52.232;5.192;2022-12-18T00:06:12;66.32;;;30.10;;
47383;SDS011;33129;52.232;5.192;2022-12-18T00:08:40;67.75;;;29.02;;
47383;SDS011;33129;52.232;5.192;2022-12-18T00:11:07;67.70;;;29.27;;
47383;SDS011;33129;52.232;5.192;2022-12-18T00:13:37;64.22;;;28.92;;
47383;SDS011;33129;52.232;5.192;2022-12-18T00:16:07;68.45;;;31.55;;
47383;SDS011;33129;52.232;5.192;2022-12-18T00:18:38;67.93;;;29.23;;
47383;SDS011;33129;52.232;5.192;2022-12-18T00:21:05;64.70;;;29.83;;
47383;SDS011;33129;52.232;5.192;2022-12-18T00:23:34;77.45;;;31.55;;
47383;SDS011;33129;52.232;5.192;2022-12-18T00:26:02;74.90;;;29.73;;
47383;SDS011;33129;52.232;5.192;2022-12-18T00:28:34;64.07;;;28.60;;
47383;SDS011;33129;52.232;5.192;2022-12-18T00:31:01;62.27;;;28.17;;
47383;SDS011;33129;52.232;5.192;2022-12-18T00:33:32;71.90;;;29.50;;
47383;SDS011;33129;52.232;5.192;2022-12-18T00:36:06;67.57;;;28.65;;
47383;SDS011;33129;52.232;5.192;2022-12-18T00:38:38;65.60;;;28.27;;
47383;SDS011;33129;52.232;5.192;2022-12-18T00:41:05;66.25;;;27.75;;
47383;SDS011;33129;52.232;5.192;2022-12-18T00:43:32;64.03;;;28.38;;
47383;SDS011;33129;52.232;5.192;2022-12-18T00:45:59;60.50;;;28.13;;
47383;SDS011;33129;52.232;5.192;2022-12-18T00:48:25;66.00;;;29.80;;
47383;SDS011;33129;52.232;5.192;2022-12-18T00:50:51;63.27;;;27.57;;
47383;SDS011;33129;52.232;5.192;2022-12-18T00:53:17;65.35;;;29.38;;
47383;SDS011;33129;52.232;5.192;2022-12-18T00:55:44;62.20;;;25.73;;
47383;SDS011;33129;52.232;5.192;2022-12-18T00:58:11;63.15;;;26.40;;
47383;SDS011;33129;52.232;5.192;2022-12-18T01:00:38;58.47;;;27.77;;
47383;SDS011;33129;52.232;5.192;2022-12-18T01:03:04;63.80;;;27.05;;
47383;SDS011;33129;52.232;5.192;2022-12-18T01:05:31;61.40;;;27.05;;
47383;SDS011;33129;52.232;5.192;2022-12-18T01:07:58;58.67;;;26.40;;
47383;SDS011;33129;52.232;5.192;2022-12-18T01:10:25;56.80;;;25.60;;
47383;SDS011;33129;52.232;5.192;2022-12-18T01:12:51;50.53;;;24.70;;
47383;SDS011;33129;52.232;5.192;2022-12-18T01:15:18;58.57;;;26.10;;
47383;SDS011;33129;52.232;5.192;2022-12-18T01:17:44;58.65;;;26.50;;
47383;SDS011;33129;52.232;5.192;2022-12-18T01:20:11;60.07;;;27.63;;
47383;SDS011;33129;52.232;5.192;2022-12-18T01:22:38;58.78;;;27.38;;
47383;SDS011;33129;52.232;5.192;2022-12-18T01:25:04;59.05;;;25.80;;
47383;SDS011;33129;52.232;5.192;2022-12-18T01:27:30;55.33;;;23.88;;
47383;SDS011;33129;52.232;5.192;2022-12-18T01:29:58;61.83;;;29.23;;
47383;SDS011;33129;52.232;5.192;2022-12-18T01:32:24;59.83;;;24.90;;
47383;SDS011;33129;52.232;5.192;2022-12-18T01:34:50;58.13;;;26.27;;
47383;SDS011;33129;52.232;5.192;2022-12-18T01:37:16;54.35;;;25.20;;
47383;SDS011;33129;52.232;5.192;2022-12-18T01:39:42;63.17;;;27.42;;
47383;SDS011;33129;52.232;5.192;2022-12-18T01:42:12;61.30;;;27.40;;
47383;SDS011;33129;52.232;5.192;2022-12-18T01:47:38;54.20;;;25.20;;
47383;SDS011;33129;52.232;5.192;2022-12-18T01:50:41;52.70;;;25.10;;
47383;SDS011;33129;52.232;5.192;2022-12-18T01:53:15;65.95;;;27.25;;
47383;SDS011;33129;52.232;5.192;2022-12-18T01:55:49;59.72;;;27.33;;
47383;SDS011;33129;52.232;5.192;2022-12-18T01:58:19;59.03;;;25.30;;
47383;SDS011;33129;52.232;5.192;2022-12-18T02:00:54;57.95;;;26.95;;
47383;SDS011;33129;52.232;5.192;2022-12-18T02:03:20;59.58;;;25.42;;
47383;SDS011;33129;52.232;5.192;2022-12-18T02:14:44;56.55;;;25.00;;
47383;SDS011;33129;52.232;5.192;2022-12-18T02:17:23;57.45;;;25.63;;
47383;SDS011;33129;52.232;5.192;2022-12-18T02:20:20;55.90;;;26.13;;
47383;SDS011;33129;52.232;5.192;2022-12-18T02:29:05;61.63;;;27.42;;
47383;SDS011;33129;52.232;5.192;2022-12-18T02:31:40;62.67;;;26.40;;
47383;SDS011;33129;52.232;5.192;2022-12-18T02:34:12;57.40;;;26.80;;
47383;SDS011;33129;52.232;5.192;2022-12-18T02:36:40;63.45;;;27.52;;
47383;SDS011;33129;52.232;5.192;2022-12-18T02:39:09;61.63;;;27.65;;
47383;SDS011;33129;52.232;5.192;2022-12-18T02:41:37;67.10;;;28.33;;
47383;SDS011;33129;52.232;5.192;2022-12-18T02:44:07;58.90;;;26.08;;
47383;SDS011;33129;52.232;5.192;2022-12-18T02:46:48;56.72;;;25.55;;
47383;SDS011;33129;52.232;5.192;2022-12-18T02:49:36;61.67;;;25.42;;
47383;SDS011;33129;52.232;5.192;2022-12-18T02:52:25;59.97;;;26.02;;
47383;SDS011;33129;52.232;5.192;2022-12-18T03:00:28;59.50;;;27.52;;
47383;SDS011;33129;52.232;5.192;2022-12-18T03:03:10;55.15;;;24.98;;
47383;SDS011;33129;52.232;5.192;2022-12-18T03:05:55;63.17;;;28.25;;
47383;SDS011;33129;52.232;5.192;2022-12-18T03:08:30;64.95;;;27.70;;
47383;SDS011;33129;52.232;5.192;2022-12-18T03:11:07;61.70;;;26.55;;
47383;SDS011;33129;52.232;5.192;2022-12-18T03:13:40;60.70;;;25.30;;
47383;SDS011;33129;52.232;5.192;2022-12-18T03:16:09;68.20;;;27.35;;
47383;SDS011;33129;52.232;5.192;2022-12-18T03:18:45;62.35;;;28.65;;
47383;SDS011;33129;52.232;5.192;2022-12-18T03:21:21;59.90;;;26.98;;
47383;SDS011;33129;52.232;5.192;2022-12-18T03:23:53;58.92;;;26.80;;
47383;SDS011;33129;52.232;5.192;2022-12-18T03:26:22;59.83;;;26.63;;
47383;SDS011;33129;52.232;5.192;2022-12-18T03:28:51;62.03;;;26.33;;
47383;SDS011;33129;52.232;5.192;2022-12-18T03:31:24;65.88;;;28.33;;
47383;SDS011;33129;52.232;5.192;2022-12-18T03:33:54;57.88;;;26.33;;
47383;SDS011;33129;52.232;5.192;2022-12-18T03:36:23;52.45;;;25.70;;
47383;SDS011;33129;52.232;5.192;2022-12-18T03:38:49;56.42;;;25.55;;
47383;SDS011;33129;52.232;5.192;2022-12-18T03:41:21;57.25;;;25.58;;
47383;SDS011;33129;52.232;5.192;2022-12-18T03:47:25;52.92;;;25.08;;
47383;SDS011;33129;52.232;5.192;2022-12-18T03:55:23;54.28;;;25.00;;
47383;SDS011;33129;52.232;5.192;2022-12-18T03:57:53;52.50;;;24.75;;
47383;SDS011;33129;52.232;5.192;2022-12-18T04:00:19;55.28;;;24.15;;
47383;SDS011;33129;52.232;5.192;2022-12-18T04:02:48;52.55;;;24.85;;
47383;SDS011;33129;52.232;5.192;2022-12-18T04:05:17;53.90;;;24.80;;
47383;SDS011;33129;52.232;5.192;2022-12-18T04:07:45;51.50;;;25.25;;
47383;SDS011;33129;52.232;5.192;2022-12-18T04:10:13;52.53;;;23.48;;
47383;SDS011;33129;52.232;5.192;2022-12-18T04:12:43;52.35;;;25.23;;
47383;SDS011;33129;52.232;5.192;2022-12-18T04:15:10;55.90;;;27.35;;
47383;SDS011;33129;52.232;5.192;2022-12-18T04:17:37;58.08;;;26.88;;
47383;SDS011;33129;52.232;5.192;2022-12-18T04:20:04;54.67;;;25.70;;
47383;SDS011;33129;52.232;5.192;2022-12-18T04:22:31;53.40;;;24.02;;
47383;SDS011;33129;52.232;5.192;2022-12-18T04:24:57;51.73;;;23.77;;
47383;SDS011;33129;52.232;5.192;2022-12-18T04:27:22;50.70;;;25.53;;
47383;SDS011;33129;52.232;5.192;2022-12-18T04:29:48;48.00;;;23.27;;
47383;SDS011;33129;52.232;5.192;2022-12-18T04:32:14;45.20;;;21.43;;
47383;SDS011;33129;52.232;5.192;2022-12-18T04:34:39;54.00;;;23.50;;
47383;SDS011;33129;52.232;5.192;2022-12-18T04:37:05;52.90;;;25.63;;
47383;SDS011;33129;52.232;5.192;2022-12-18T04:39:31;47.50;;;22.73;;
47383;SDS011;33129;52.232;5.192;2022-12-18T04:42:00;42.73;;;21.40;;
47383;SDS011;33129;52.232;5.192;2022-12-18T04:44:25;45.42;;;22.35;;
47383;SDS011;33129;52.232;5.192;2022-12-18T04:46:51;47.53;;;22.77;;
47383;SDS011;33129;52.232;5.192;2022-12-18T04:49:17;44.90;;;21.43;;
47383;SDS011;33129;52.232;5.192;2022-12-18T04:51:42;45.30;;;21.83;;
47383;SDS011;33129;52.232;5.192;2022-12-18T04:54:08;43.90;;;22.00;;
47383;SDS011;33129;52.232;5.192;2022-12-18T04:56:34;44.43;;;21.63;;
47383;SDS011;33129;52.232;5.192;2022-12-18T04:59:00;43.20;;;20.55;;
47383;SDS011;33129;52.232;5.192;2022-12-18T05:01:26;42.33;;;21.30;;
47383;SDS011;33129;52.232;5.192;2022-12-18T05:03:52;41.58;;;21.20;;
47383;SDS011;33129;52.232;5.192;2022-12-18T05:06:18;44.80;;;20.63;;
47383;SDS011;33129;52.232;5.192;2022-12-18T05:08:44;41.27;;;20.40;;
47383;SDS011;33129;52.232;5.192;2022-12-18T05:11:14;42.30;;;21.40;;
47383;SDS011;33129;52.232;5.192;2022-12-18T05:13:40;45.35;;;20.73;;
47383;SDS011;33129;52.232;5.192;2022-12-18T05:16:07;42.83;;;20.65;;
47383;SDS011;33129;52.232;5.192;2022-12-18T05:18:34;40.75;;;21.10;;
47383;SDS011;33129;52.232;5.192;2022-12-18T05:21:00;42.35;;;20.10;;
47383;SDS011;33129;52.232;5.192;2022-12-18T05:23:26;41.90;;;20.73;;
47383;SDS011;33129;52.232;5.192;2022-12-18T05:25:53;41.72;;;21.30;;
47383;SDS011;33129;52.232;5.192;2022-12-18T05:28:22;45.22;;;21.02;;
47383;SDS011;33129;52.232;5.192;2022-12-18T05:30:54;41.47;;;21.00;;
47383;SDS011;33129;52.232;5.192;2022-12-18T05:33:24;43.20;;;20.58;;
47383;SDS011;33129;52.232;5.192;2022-12-18T05:35:52;42.15;;;21.02;;
47383;SDS011;33129;52.232;5.192;2022-12-18T05:38:21;42.65;;;20.92;;
47383;SDS011;33129;52.232;5.192;2022-12-18T05:40:49;42.45;;;21.05;;
47383;SDS011;33129;52.232;5.192;2022-12-18T05:43:16;42.35;;;20.80;;
47383;SDS011;33129;52.232;5.192;2022-12-18T05:45:44;40.90;;;20.13;;
47383;SDS011;33129;52.232;5.192;2022-12-18T05:48:10;44.07;;;20.50;;
47383;SDS011;33129;52.232;5.192;2022-12-18T05:50:37;42.90;;;20.00;;
47383;SDS011;33129;52.232;5.192;2022-12-18T05:53:06;35.90;;;18.35;;
47383;SDS011;33129;52.232;5.192;2022-12-18T05:55:33;39.03;;;18.83;;
47383;SDS011;33129;52.232;5.192;2022-12-18T06:00:31;41.58;;;19.50;;
47383;SDS011;33129;52.232;5.192;2022-12-18T06:02:59;36.35;;;19.13;;
47383;SDS011;33129;52.232;5.192;2022-12-18T06:05:26;35.42;;;18.15;;
47383;SDS011;33129;52.232;5.192;2022-12-18T06:07:52;34.37;;;18.07;;
47383;SDS011;33129;52.232;5.192;2022-12-18T06:10:18;36.55;;;18.88;;
47383;SDS011;33129;52.232;5.192;2022-12-18T06:12:44;34.30;;;17.65;;
47383;SDS011;33129;52.232;5.192;2022-12-18T06:15:10;32.58;;;16.92;;
47383;SDS011;33129;52.232;5.192;2022-12-18T06:17:36;32.40;;;16.87;;
47383;SDS011;33129;52.232;5.192;2022-12-18T06:20:03;29.85;;;16.70;;
47383;SDS011;33129;52.232;5.192;2022-12-18T06:22:31;31.15;;;15.50;;
47383;SDS011;33129;52.232;5.192;2022-12-18T06:24:57;31.17;;;16.65;;
47383;SDS011;33129;52.232;5.192;2022-12-18T06:27:24;28.42;;;14.90;;
47383;SDS011;33129;52.232;5.192;2022-12-18T06:29:50;32.43;;;16.57;;
47383;SDS011;33129;52.232;5.192;2022-12-18T06:32:16;28.35;;;14.52;;
47383;SDS011;33129;52.232;5.192;2022-12-18T06:34:42;31.47;;;16.03;;
47383;SDS011;33129;52.232;5.192;2022-12-18T06:37:07;33.50;;;16.67;;
47383;SDS011;33129;52.232;5.192;2022-12-18T06:39:33;29.80;;;14.87;;
47383;SDS011;33129;52.232;5.192;2022-12-18T06:41:59;29.73;;;14.80;;
47383;SDS011;33129;52.232;5.192;2022-12-18T06:44:25;33.57;;;15.93;;
47383;SDS011;33129;52.232;5.192;2022-12-18T06:46:51;33.93;;;16.80;;
47383;SDS011;33129;52.232;5.192;2022-12-18T06:49:17;29.55;;;15.20;;
47383;SDS011;33129;52.232;5.192;2022-12-18T06:51:43;27.23;;;14.50;;
47383;SDS011;33129;52.232;5.192;2022-12-18T06:54:09;33.03;;;16.80;;
47383;SDS011;33129;52.232;5.192;2022-12-18T06:56:34;29.90;;;14.90;;
47383;SDS011;33129;52.232;5.192;2022-12-18T06:59:00;27.27;;;14.37;;
47383;SDS011;33129;52.232;5.192;2022-12-18T07:01:26;29.57;;;15.20;;
47383;SDS011;33129;52.232;5.192;2022-12-18T07:03:52;31.07;;;14.80;;
47383;SDS011;33129;52.232;5.192;2022-12-18T07:06:21;26.35;;;14.35;;
47383;SDS011;33129;52.232;5.192;2022-12-18T07:08:49;30.15;;;15.15;;
47383;SDS011;33129;52.232;5.192;2022-12-18T07:11:17;29.77;;;15.23;;
47383;SDS011;33129;52.232;5.192;2022-12-18T07:13:45;25.50;;;14.20;;
47383;SDS011;33129;52.232;5.192;2022-12-18T07:16:12;28.77;;;15.32;;
47383;SDS011;33129;52.232;5.192;2022-12-18T07:18:40;27.88;;;14.40;;
47383;SDS011;33129;52.232;5.192;2022-12-18T07:21:07;26.67;;;15.00;;
47383;SDS011;33129;52.232;5.192;2022-12-18T07:23:36;26.75;;;13.98;;
47383;SDS011;33129;52.232;5.192;2022-12-18T07:26:03;29.25;;;14.30;;
47383;SDS011;33129;52.232;5.192;2022-12-18T07:28:38;28.98;;;15.45;;
47383;SDS011;33129;52.232;5.192;2022-12-18T07:31:06;25.85;;;14.07;;
47383;SDS011;33129;52.232;5.192;2022-12-18T07:33:36;29.58;;;16.00;;
47383;SDS011;33129;52.232;5.192;2022-12-18T07:36:03;25.38;;;14.25;;
47383;SDS011;33129;52.232;5.192;2022-12-18T07:38:31;26.77;;;13.55;;
47383;SDS011;33129;52.232;5.192;2022-12-18T07:41:06;26.75;;;14.25;;
47383;SDS011;33129;52.232;5.192;2022-12-18T07:43:37;27.73;;;14.80;;
47383;SDS011;33129;52.232;5.192;2022-12-18T07:46:04;24.52;;;13.77;;
47383;SDS011;33129;52.232;5.192;2022-12-18T07:48:31;25.88;;;14.13;;
47383;SDS011;33129;52.232;5.192;2022-12-18T07:51:01;26.63;;;13.80;;
47383;SDS011;33129;52.232;5.192;2022-12-18T07:53:29;23.85;;;13.52;;
47383;SDS011;33129;52.232;5.192;2022-12-18T07:55:59;28.90;;;14.18;;
47383;SDS011;33129;52.232;5.192;2022-12-18T07:58:30;24.33;;;13.75;;
47383;SDS011;33129;52.232;5.192;2022-12-18T08:01:07;27.67;;;14.07;;
47383;SDS011;33129;52.232;5.192;2022-12-18T08:03:35;24.13;;;14.35;;
47383;SDS011;33129;52.232;5.192;2022-12-18T08:06:03;31.83;;;14.50;;
47383;SDS011;33129;52.232;5.192;2022-12-18T08:08:31;24.33;;;13.73;;
47383;SDS011;33129;52.232;5.192;2022-12-18T08:10:58;24.75;;;14.20;;
47383;SDS011;33129;52.232;5.192;2022-12-18T08:13:25;25.67;;;14.32;;
47383;SDS011;33129;52.232;5.192;2022-12-18T08:15:56;25.35;;;13.70;;
47383;SDS011;33129;52.232;5.192;2022-12-18T08:18:23;23.38;;;13.85;;
47383;SDS011;33129;52.232;5.192;2022-12-18T08:20:50;22.33;;;13.43;;
47383;SDS011;33129;52.232;5.192;2022-12-18T08:23:16;24.87;;;13.70;;
47383;SDS011;33129;52.232;5.192;2022-12-18T08:25:41;26.40;;;13.57;;
47383;SDS011;33129;52.232;5.192;2022-12-18T08:28:07;25.77;;;14.27;;
47383;SDS011;33129;52.232;5.192;2022-12-18T08:30:33;24.10;;;13.57;;
47383;SDS011;33129;52.232;5.192;2022-12-18T08:32:59;24.17;;;14.63;;
47383;SDS011;33129;52.232;5.192;2022-12-18T08:35:25;25.53;;;13.90;;
47383;SDS011;33129;52.232;5.192;2022-12-18T08:37:51;24.90;;;13.60;;
47383;SDS011;33129;52.232;5.192;2022-12-18T08:40:17;22.87;;;13.00;;
47383;SDS011;33129;52.232;5.192;2022-12-18T08:42:43;24.63;;;13.93;;
47383;SDS011;33129;52.232;5.192;2022-12-18T08:45:28;23.67;;;13.77;;
47383;SDS011;33129;52.232;5.192;2022-12-18T08:47:54;24.52;;;13.60;;
47383;SDS011;33129;52.232;5.192;2022-12-18T08:50:20;24.53;;;13.43;;
47383;SDS011;33129;52.232;5.192;2022-12-18T08:52:46;20.10;;;11.88;;
47383;SDS011;33129;52.232;5.192;2022-12-18T08:55:12;23.40;;;13.43;;
47383;SDS011;33129;52.232;5.192;2022-12-18T08:57:38;23.70;;;13.23;;
47383;SDS011;33129;52.232;5.192;2022-12-18T09:00:04;24.93;;;14.20;;
47383;SDS011;33129;52.232;5.192;2022-12-18T09:02:30;26.85;;;13.95;;
47383;SDS011;33129;52.232;5.192;2022-12-18T09:04:56;20.67;;;13.47;;
47383;SDS011;33129;52.232;5.192;2022-12-18T09:07:22;23.23;;;13.77;;
47383;SDS011;33129;52.232;5.192;2022-12-18T09:09:47;21.27;;;12.73;;
47383;SDS011;33129;52.232;5.192;2022-12-18T09:12:13;23.67;;;12.97;;
47383;SDS011;33129;52.232;5.192;2022-12-18T09:14:39;24.20;;;12.70;;
47383;SDS011;33129;52.232;5.192;2022-12-18T09:17:05;25.47;;;12.10;;
47383;SDS011;33129;52.232;5.192;2022-12-18T09:19:30;43.10;;;19.73;;
47383;SDS011;33129;52.232;5.192;2022-12-18T09:21:56;23.77;;;13.27;;
47383;SDS011;33129;52.232;5.192;2022-12-18T09:24:22;21.57;;;11.63;;
47383;SDS011;33129;52.232;5.192;2022-12-18T09:26:48;18.43;;;10.70;;
47383;SDS011;33129;52.232;5.192;2022-12-18T09:29:14;21.57;;;12.70;;
47383;SDS011;33129;52.232;5.192;2022-12-18T09:31:41;23.88;;;13.07;;
47383;SDS011;33129;52.232;5.192;2022-12-18T09:34:07;20.63;;;12.77;;
47383;SDS011;33129;52.232;5.192;2022-12-18T09:36:33;19.97;;;12.50;;
47383;SDS011;33129;52.232;5.192;2022-12-18T09:38:59;22.08;;;12.27;;
47383;SDS011;33129;52.232;5.192;2022-12-18T09:41:47;22.57;;;13.03;;
47383;SDS011;33129;52.232;5.192;2022-12-18T09:47:01;20.02;;;12.32;;
47383;SDS011;33129;52.232;5.192;2022-12-18T09:52:12;22.45;;;12.90;;
47383;SDS011;33129;52.232;5.192;2022-12-18T09:54:47;21.55;;;12.25;;
47383;SDS011;33129;52.232;5.192;2022-12-18T09:57:28;22.38;;;13.25;;
47383;SDS011;33129;52.232;5.192;2022-12-18T10:00:30;19.80;;;12.05;;
47383;SDS011;33129;52.232;5.192;2022-12-18T10:02:56;20.23;;;11.65;;
47383;SDS011;33129;52.232;5.192;2022-12-18T10:05:33;22.20;;;12.32;;
47383;SDS011;33129;52.232;5.192;2022-12-18T10:14:16;24.08;;;12.68;;
47383;SDS011;33129;52.232;5.192;2022-12-18T10:27:57;21.08;;;11.70;;
47383;SDS011;33129;52.232;5.192;2022-12-18T10:30:32;21.80;;;12.43;;
47383;SDS011;33129;52.232;5.192;2022-12-18T10:33:02;21.97;;;12.10;;
47383;SDS011;33129;52.232;5.192;2022-12-18T10:35:28;22.65;;;11.90;;
47383;SDS011;33129;52.232;5.192;2022-12-18T10:38:01;17.77;;;11.73;;
47383;SDS011;33129;52.232;5.192;2022-12-18T10:40:50;20.35;;;12.32;;
47383;SDS011;33129;52.232;5.192;2022-12-18T10:43:26;21.35;;;12.35;;
47383;SDS011;33129;52.232;5.192;2022-12-18T10:48:25;22.38;;;13.13;;
47383;SDS011;33129;52.232;5.192;2022-12-18T10:50:52;13.43;;;7.35;;
47383;SDS011;33129;52.232;5.192;2022-12-18T10:53:20;19.48;;;11.48;;
47383;SDS011;33129;52.232;5.192;2022-12-18T10:55:50;19.77;;;10.80;;
47383;SDS011;33129;52.232;5.192;2022-12-18T10:58:27;20.45;;;11.95;;
47383;SDS011;33129;52.232;5.192;2022-12-18T11:03:41;17.85;;;10.75;;
47383;SDS011;33129;52.232;5.192;2022-12-18T11:06:13;21.58;;;11.90;;
47383;SDS011;33129;52.232;5.192;2022-12-18T11:08:40;20.27;;;11.65;;
47383;SDS011;33129;52.232;5.192;2022-12-18T11:11:21;20.80;;;11.32;;
47383;SDS011;33129;52.232;5.192;2022-12-18T11:16:33;19.67;;;10.63;;
47383;SDS011;33129;52.232;5.192;2022-12-18T11:19:40;17.65;;;10.27;;
47383;SDS011;33129;52.232;5.192;2022-12-18T11:22:04;18.77;;;12.10;;
47383;SDS011;33129;52.232;5.192;2022-12-18T11:24:58;19.38;;;11.55;;
47383;SDS011;33129;52.232;5.192;2022-12-18T11:27:30;20.50;;;11.98;;
47383;SDS011;33129;52.232;5.192;2022-12-18T11:33:11;17.00;;;10.60;;
47383;SDS011;33129;52.232;5.192;2022-12-18T11:35:55;21.23;;;12.13;;
47383;SDS011;33129;52.232;5.192;2022-12-18T11:38:29;21.08;;;11.13;;
47383;SDS011;33129;52.232;5.192;2022-12-18T11:41:07;18.35;;;10.32;;
47383;SDS011;33129;52.232;5.192;2022-12-18T11:44:11;18.33;;;11.73;;
47383;SDS011;33129;52.232;5.192;2022-12-18T11:46:49;18.85;;;11.05;;
47383;SDS011;33129;52.232;5.192;2022-12-18T11:49:26;21.05;;;11.95;;
47383;SDS011;33129;52.232;5.192;2022-12-18T11:54:50;23.00;;;11.85;;
47383;SDS011;33129;52.232;5.192;2022-12-18T12:00:21;17.60;;;10.35;;
47383;SDS011;33129;52.232;5.192;2022-12-18T12:09:02;18.80;;;10.40;;
47383;SDS011;33129;52.232;5.192;2022-12-18T12:14:38;19.48;;;10.70;;
47383;SDS011;33129;52.232;5.192;2022-12-18T12:17:45;17.50;;;10.57;;
47383;SDS011;33129;52.232;5.192;2022-12-18T12:23:18;19.63;;;10.98;;
47383;SDS011;33129;52.232;5.192;2022-12-18T12:26:07;22.45;;;11.48;;
47383;SDS011;33129;52.232;5.192;2022-12-18T12:29:42;18.40;;;10.20;;
47383;SDS011;33129;52.232;5.192;2022-12-18T12:34:34;19.35;;;11.23;;
47383;SDS011;33129;52.232;5.192;2022-12-18T12:40:18;18.85;;;10.38;;
47383;SDS011;33129;52.232;5.192;2022-12-18T12:45:41;22.95;;;11.35;;
47383;SDS011;33129;52.232;5.192;2022-12-18T12:51:13;20.80;;;11.55;;
47383;SDS011;33129;52.232;5.192;2022-12-18T12:53:58;19.23;;;10.45;;
47383;SDS011;33129;52.232;5.192;2022-12-18T12:56:36;19.15;;;10.70;;
47383;SDS011;33129;52.232;5.192;2022-12-18T12:59:18;18.70;;;10.43;;
47383;SDS011;33129;52.232;5.192;2022-12-18T13:02:14;19.23;;;10.55;;
47383;SDS011;33129;52.232;5.192;2022-12-18T13:07:39;19.63;;;10.65;;
47383;SDS011;33129;52.232;5.192;2022-12-18T13:10:24;17.35;;;10.50;;
47383;SDS011;33129;52.232;5.192;2022-12-18T13:13:09;21.20;;;11.20;;
47383;SDS011;33129;52.232;5.192;2022-12-18T13:30:59;20.87;;;12.57;;
47383;SDS011;33129;52.232;5.192;2022-12-18T13:33:34;21.13;;;11.63;;
47383;SDS011;33129;52.232;5.192;2022-12-18T13:39:21;22.67;;;13.02;;
47383;SDS011;33129;52.232;5.192;2022-12-18T13:41:53;20.08;;;11.75;;
47383;SDS011;33129;52.232;5.192;2022-12-18T13:44:57;22.58;;;12.23;;
47383;SDS011;33129;52.232;5.192;2022-12-18T13:49:57;22.50;;;13.07;;
47383;SDS011;33129;52.232;5.192;2022-12-18T13:52:25;28.33;;;15.23;;
47383;SDS011;33129;52.232;5.192;2022-12-18T13:55:01;23.52;;;13.00;;
47383;SDS011;33129;52.232;5.192;2022-12-18T14:00:14;20.67;;;12.85;;
47383;SDS011;33129;52.232;5.192;2022-12-18T14:02:48;20.15;;;12.07;;
47383;SDS011;33129;52.232;5.192;2022-12-18T14:07:59;23.52;;;14.07;;
47383;SDS011;33129;52.232;5.192;2022-12-18T14:10:30;21.92;;;12.75;;
47383;SDS011;33129;52.232;5.192;2022-12-18T14:12:56;23.42;;;13.30;;
47383;SDS011;33129;52.232;5.192;2022-12-18T14:15:34;20.63;;;12.50;;
47383;SDS011;33129;52.232;5.192;2022-12-18T14:21:15;21.38;;;11.90;;
47383;SDS011;33129;52.232;5.192;2022-12-18T14:26:45;19.85;;;12.38;;
47383;SDS011;33129;52.232;5.192;2022-12-18T14:34:41;23.25;;;13.60;;
47383;SDS011;33129;52.232;5.192;2022-12-18T14:37:09;22.37;;;12.97;;
47383;SDS011;33129;52.232;5.192;2022-12-18T14:39:37;22.35;;;12.52;;
47383;SDS011;33129;52.232;5.192;2022-12-18T14:42:03;22.45;;;13.18;;
47383;SDS011;33129;52.232;5.192;2022-12-18T14:44:28;23.73;;;13.83;;
47383;SDS011;33129;52.232;5.192;2022-12-18T14:46:54;21.03;;;12.17;;
47383;SDS011;33129;52.232;5.192;2022-12-18T14:49:23;22.95;;;12.82;;
47383;SDS011;33129;52.232;5.192;2022-12-18T14:52:03;24.15;;;12.60;;
47383;SDS011;33129;52.232;5.192;2022-12-18T14:54:46;22.92;;;12.35;;
47383;SDS011;33129;52.232;5.192;2022-12-18T14:57:23;22.90;;;13.07;;
47383;SDS011;33129;52.232;5.192;2022-12-18T14:59:51;19.13;;;10.07;;
47383;SDS011;33129;52.232;5.192;2022-12-18T15:02:27;22.85;;;13.15;;
47383;SDS011;33129;52.232;5.192;2022-12-18T15:05:01;23.00;;;12.45;;
47383;SDS011;33129;52.232;5.192;2022-12-18T15:07:51;21.45;;;11.73;;
47383;SDS011;33129;52.232;5.192;2022-12-18T15:10:20;26.00;;;13.18;;
47383;SDS011;33129;52.232;5.192;2022-12-18T15:20:43;23.33;;;12.85;;
47383;SDS011;33129;52.232;5.192;2022-12-18T15:25:47;27.15;;;14.73;;
47383;SDS011;33129;52.232;5.192;2022-12-18T15:28:22;21.00;;;12.57;;
47383;SDS011;33129;52.232;5.192;2022-12-18T15:30:59;23.35;;;12.70;;
47383;SDS011;33129;52.232;5.192;2022-12-18T15:33:59;22.23;;;13.45;;
47383;SDS011;33129;52.232;5.192;2022-12-18T15:36:47;22.35;;;12.57;;
47383;SDS011;33129;52.232;5.192;2022-12-18T15:39:13;21.90;;;12.50;;
47383;SDS011;33129;52.232;5.192;2022-12-18T15:41:39;23.57;;;13.03;;
47383;SDS011;33129;52.232;5.192;2022-12-18T15:44:23;22.17;;;12.07;;
47383;SDS011;33129;52.232;5.192;2022-12-18T15:46:50;22.15;;;12.27;;
47383;SDS011;33129;52.232;5.192;2022-12-18T15:49:16;22.70;;;13.07;;
47383;SDS011;33129;52.232;5.192;2022-12-18T15:51:42;21.47;;;12.57;;
47383;SDS011;33129;52.232;5.192;2022-12-18T15:54:11;24.23;;;13.40;;
47383;SDS011;33129;52.232;5.192;2022-12-18T15:56:41;25.45;;;13.77;;
47383;SDS011;33129;52.232;5.192;2022-12-18T15:59:26;19.73;;;11.73;;
47383;SDS011;33129;52.232;5.192;2022-12-18T16:01:52;25.50;;;14.20;;
47383;SDS011;33129;52.232;5.192;2022-12-18T16:04:19;25.25;;;13.23;;
47383;SDS011;33129;52.232;5.192;2022-12-18T16:06:46;23.42;;;13.57;;
47383;SDS011;33129;52.232;5.192;2022-12-18T16:09:13;25.70;;;13.88;;
47383;SDS011;33129;52.232;5.192;2022-12-18T16:11:39;20.00;;;12.70;;
47383;SDS011;33129;52.232;5.192;2022-12-18T16:14:21;24.60;;;13.45;;
47383;SDS011;33129;52.232;5.192;2022-12-18T16:16:53;22.70;;;13.75;;
47383;SDS011;33129;52.232;5.192;2022-12-18T16:19:23;27.58;;;14.90;;
47383;SDS011;33129;52.232;5.192;2022-12-18T16:21:50;23.95;;;15.52;;
47383;SDS011;33129;52.232;5.192;2022-12-18T16:24:19;22.35;;;13.63;;
47383;SDS011;33129;52.232;5.192;2022-12-18T16:26:48;23.27;;;12.82;;
47383;SDS011;33129;52.232;5.192;2022-12-18T16:29:16;24.17;;;13.98;;
47383;SDS011;33129;52.232;5.192;2022-12-18T16:31:43;24.95;;;13.52;;
47383;SDS011;33129;52.232;5.192;2022-12-18T16:34:22;23.63;;;13.30;;
47383;SDS011;33129;52.232;5.192;2022-12-18T16:36:51;22.77;;;13.20;;
47383;SDS011;33129;52.232;5.192;2022-12-18T16:39:22;23.15;;;13.75;;
47383;SDS011;33129;52.232;5.192;2022-12-18T16:41:47;27.50;;;15.20;;
47383;SDS011;33129;52.232;5.192;2022-12-18T16:44:14;24.75;;;13.43;;
47383;SDS011;33129;52.232;5.192;2022-12-18T16:46:40;26.58;;;14.05;;
47383;SDS011;33129;52.232;5.192;2022-12-18T16:49:08;25.20;;;14.10;;
47383;SDS011;33129;52.232;5.192;2022-12-18T16:51:35;25.95;;;14.77;;
47383;SDS011;33129;52.232;5.192;2022-12-18T16:54:01;22.60;;;13.65;;
47383;SDS011;33129;52.232;5.192;2022-12-18T16:56:27;26.27;;;14.63;;
47383;SDS011;33129;52.232;5.192;2022-12-18T16:58:54;26.30;;;14.60;;
47383;SDS011;33129;52.232;5.192;2022-12-18T17:01:22;25.50;;;14.60;;
47383;SDS011;33129;52.232;5.192;2022-12-18T17:03:52;26.35;;;14.55;;
47383;SDS011;33129;52.232;5.192;2022-12-18T17:06:20;26.52;;;15.55;;
47383;SDS011;33129;52.232;5.192;2022-12-18T17:08:47;25.75;;;14.30;;
47383;SDS011;33129;52.232;5.192;2022-12-18T17:11:13;24.65;;;14.13;;